Latest Weather Observations for Kingscote

IDS60801

Issued at 9:31 pm CST Saturday 25 June 2016 (issued every 30 minutes, with the page automatically refreshed every 10 minutes)

About weather observations | Map of weather stations | Latest weather observations for SA | Other Formats
Station Details ID: 022841 Name: KINGSCOTE AERO Lat: -35.71 Lon: 137.52 Height: 6.23 m
Data from the previous 72 hours. | See also: Recent months at Kingscote
Date/Time
CST
Temp
°C
App
Temp
°C
Dew
Point
°C
Rel
Hum
%
Delta-T
°C
Wind Press
QNH
hPa
Press
MSL
hPa
Rain since
9am
mm
Dir  Spd
km/h
Gust
km/h
Spd
kts
Gust
kts
25/09:30pm 11.3 7.2 4.3 62 3.1 NNW 15 28 8 15 1019.7 1019.7 0.0
25/09:00pm 11.1 7.6 5.6 69 2.5 N 13 20 7 11 1020.0 1020.0 0.0
25/08:30pm 10.7 7.5 5.3 69 2.5 NNW 11 19 6 10 1020.1 1020.1 0.0
25/08:00pm 11.1 7.0 6.0 71 2.4 NNW 17 20 9 11 1020.6 1020.6 0.0
25/07:30pm 9.7 8.0 8.5 92 0.6 NNW 7 15 4 8 1020.9 1020.9 0.0
25/07:00pm 7.7 7.0 6.8 94 0.4 CALM 0 0 0 0 1021.0 1021.0 0.0
25/06:30pm 7.2 6.3 6.1 93 0.5 CALM 0 0 0 0 1020.8 1020.8 0.0
25/06:00pm 7.7 6.9 6.5 92 0.5 CALM 0 0 0 0 1020.6 1020.6 0.0
25/05:30pm 8.7 6.9 7.2 90 0.7 N 6 7 3 4 1020.7 1020.7 0.0
25/05:00pm 9.7 6.7 7.8 88 0.9 NNW 13 17 7 9 1020.8 1020.8 0.0
25/04:30pm 10.3 6.7 8.4 88 0.9 NW 17 22 9 12 1020.9 1020.9 0.0
25/04:00pm 11.4 7.2 8.3 81 1.5 NW 20 26 11 14 1021.0 1021.0 0.0
25/03:30pm 11.9 6.9 8.0 77 1.9 NNW 24 32 13 17 1021.2 1021.2 0.0
25/03:00pm 12.8 9.0 7.7 71 2.5 NNW 17 28 9 15 1021.2 1021.2 0.0
25/02:30pm 12.7 7.7 8.2 74 2.2 NNW 24 30 13 16 1021.4 1021.4 0.0
25/02:00pm 13.1 8.5 8.0 71 2.5 NW 22 32 12 17 1021.6 1021.6 0.0
25/01:30pm 12.7 8.7 8.2 74 2.2 NNW 19 32 10 17 1021.9 1021.9 0.0
25/01:00pm 12.9 8.4 6.9 67 2.9 NNW 20 28 11 15 1022.3 1022.3 0.0
25/12:30pm 12.7 8.7 6.7 67 2.9 N 17 24 9 13 1022.7 1022.7 0.0
25/12:00pm 12.8 8.6 7.5 70 2.6 NNW 19 26 10 14 1023.3 1023.3 0.0
25/11:30am 13.4 9.1 7.2 66 3.0 N 19 26 10 14 1023.7 1023.7 0.0
25/11:00am 13.9 10.5 9.3 74 2.3 N 17 22 9 12 1024.0 1024.0 0.0
25/10:30am 12.0 10.9 10.7 92 0.7 NNE 7 11 4 6 1024.1 1024.1 0.0
25/10:00am 7.9 6.0 7.6 98 0.1 NNE 7 11 4 6 1024.3 1024.3 0.0
25/09:30am 6.0 5.0 5.7 98 0.1 CALM 0 0 0 0 1024.1 1024.1 0.0
25/09:00am 4.0 2.6 3.7 98 0.1 CALM 0 0 0 0 1024.1 1024.1 0.6
25/08:30am 2.0 0.3 1.7 98 0.1 CALM 0 0 0 0 1024.1 1024.1 0.6
25/08:00am 0.6 -1.3 0.3 98 0.1 CALM 0 0 0 0 1024.0 1024.0 0.6
25/07:30am 0.6 -1.3 0.3 98 0.1 CALM 0 0 0 0 1023.9 1023.9 0.6
25/07:00am 0.7 -1.2 0.4 98 0.1 CALM 0 0 0 0 1023.6 1023.6 0.6
25/06:30am 0.8 -1.1 0.4 97 0.1 CALM 0 0 0 0 1023.4 1023.4 0.6
25/06:00am 0.9 -1.0 0.5 97 0.1 CALM 0 0 0 0 1023.3 1023.3 0.6
25/05:30am 1.2 -1.0 0.9 98 0.1 SW 2 6 1 3 1023.2 1023.2 0.6
25/05:00am 1.0 -2.0 0.7 98 0.1 W 6 9 3 5 1023.1 1023.1 0.6
25/04:30am 1.3 -1.9 0.9 97 0.1 W 7 9 4 5 1023.1 1023.1 0.6
25/04:00am 1.9 -1.0 1.5 97 0.2 SSW 6 7 3 4 1023.1 1023.1 0.6
25/03:30am 2.4 -0.4 2.0 97 0.2 SW 6 7 3 4 1023.1 1023.1 0.6
25/03:00am 2.8 -0.1 2.4 97 0.2 WNW 7 9 4 5 1023.0 1023.0 0.6
25/02:30am 2.5 0.8 2.1 97 0.2 CALM 0 0 0 0 1023.0 1023.0 0.6
25/02:00am 3.3 1.8 2.9 97 0.2 CALM 0 0 0 0 1023.0 1023.0 0.6
25/01:30am 2.4 0.7 2.0 97 0.2 CALM 0 0 0 0 1022.9 1022.9 0.4
25/01:00am 2.5 0.8 1.9 96 0.2 CALM 0 0 0 0 1022.9 1022.9 0.4
25/12:30am 3.2 1.6 2.6 96 0.2 CALM 0 0 0 0 1022.9 1022.9 0.4
25/12:00am 3.5 2.0 2.9 96 0.2 CALM 0 0 0 0 1022.8 1022.8 0.4
 
Date/Time
CST
Temp
°C
App
Temp
°C
Dew
Point
°C
Rel
Hum
%
Delta-T
°C
Wind Press
QNH
hPa
Press
MSL
hPa
Rain since
9am
mm
Dir  Spd
km/h
Gust
km/h
Spd
kts
Gust
kts
24/11:30pm 3.4 1.9 2.8 96 0.2 CALM 0 0 0 0 1022.9 1022.9 0.4
24/11:00pm 4.3 2.9 3.6 95 0.3 CALM 0 0 0 0 1022.8 1022.8 0.4
24/10:30pm 4.6 3.3 3.9 95 0.3 CALM 0 0 0 0 1022.8 1022.8 0.4
24/10:00pm 5.3 4.1 4.6 95 0.3 CALM 0 0 0 0 1022.8 1022.8 0.4
24/09:30pm 5.0 3.7 4.1 94 0.4 CALM 0 0 0 0 1022.7 1022.7 0.4
24/09:00pm 6.0 4.5 5.0 93 0.4 NNW 2 6 1 3 1022.7 1022.7 0.4
24/08:30pm 6.5 3.8 5.6 94 0.4 SSW 9 13 5 7 1022.6 1022.6 0.4
24/08:00pm 5.4 2.8 4.1 91 0.5 SSW 7 9 4 5 1022.2 1022.2 0.4
24/07:30pm 6.7 3.5 5.2 90 0.7 WNW 11 11 6 6 1021.9 1021.9 0.4
24/07:00pm 7.1 4.0 5.6 90 0.7 W 11 13 6 7 1021.4 1021.4 0.4
24/06:30pm 7.0 4.3 5.8 92 0.5 WNW 9 11 5 6 1021.0 1021.0 0.4
24/06:00pm 7.9 5.4 6.4 90 0.7 NW 9 11 5 6 1020.5 1020.5 0.4
24/05:30pm 9.2 7.2 7.3 88 0.9 SW 7 13 4 7 1020.0 1020.0 0.4
24/05:00pm 10.2 6.7 7.4 83 1.3 SW 15 32 8 17 1019.7 1019.7 0.4
24/04:30pm 10.6 7.8 7.1 79 1.7 WSW 11 13 6 7 1019.1 1019.1 0.2
24/04:00pm 10.8 7.3 7.3 79 1.7 SW 15 20 8 11 1018.7 1018.7 0.2
24/03:30pm 10.4 5.9 7.1 80 1.6 SSW 20 28 11 15 1018.3 1018.3 0.2
24/03:13pm 10.1 4.0 6.6 79 1.6 SSW 28 44 15 24 1018.2 1018.2 0.2
24/03:00pm 12.0 7.5 7.1 72 2.3 SW 20 26 11 14 1017.8 1017.8 0.2
24/02:30pm 10.6 4.5 6.7 77 1.8 SSW 28 43 15 23 1017.7 1017.7 0.2
24/02:00pm 11.2 4.8 6.9 75 2.0 SW 30 48 16 26 1017.5 1017.5 0.2
24/01:58pm 11.7 5.4 5.8 67 2.7 SW 28 48 15 26 1017.3 1017.3 0.2
24/01:30pm 11.4 7.3 8.6 83 1.4 SW 20 28 11 15 1017.3 1017.3 0.2
24/01:00pm 11.7 6.4 6.8 72 2.3 SW 24 32 13 17 1017.3 1017.3 0.2
24/12:43pm 11.0 3.8 5.7 70 2.4 SW 33 52 18 28 1017.4 1017.4 0.0
24/12:30pm 11.6 4.2 5.0 64 3.0 SW 33 48 18 26 1017.1 1017.1 0.0
24/12:00pm 11.9 5.7 6.0 67 2.8 SW 28 43 15 23 1017.0 1017.0 0.0
24/11:30am 12.1 7.0 6.2 67 2.8 WSW 22 28 12 15 1016.8 1016.8 0.0
24/11:00am 10.7 4.6 4.6 66 2.7 SW 26 41 14 22 1016.7 1016.7 0.0
24/10:30am 11.2 4.6 4.2 62 3.1 WSW 28 41 15 22 1016.3 1016.3 0.0
24/10:00am 10.6 5.8 4.7 67 2.7 WSW 19 24 10 13 1015.8 1015.8 0.0
24/09:30am 9.0 3.6 4.6 74 1.9 W 22 32 12 17 1015.2 1015.2 0.0
24/09:00am 8.7 2.5 4.1 73 2.0 WSW 26 37 14 20 1014.3 1014.3 7.4
24/08:30am 8.2 2.6 3.7 73 1.9 SW 22 33 12 18 1013.9 1013.9 7.4
24/08:00am 7.0 2.6 2.9 75 1.7 WSW 15 26 8 14 1013.2 1013.2 7.4
24/07:30am 6.5 1.3 3.5 81 1.3 WSW 20 28 11 15 1012.5 1012.5 7.4
24/07:00am 6.6 1.5 4.1 84 1.1 W 20 28 11 15 1011.4 1011.4 7.4
24/06:30am 6.9 0.8 4.6 85 1.0 WSW 26 35 14 19 1011.2 1011.2 7.4
24/06:25am 6.6 0.5 4.8 88 0.8 WSW 26 35 14 19 1011.3 1011.3 7.4
24/06:14am 6.5 0.1 5.0 90 0.7 WSW 28 39 15 21 1011.2 1011.2 7.2
24/06:00am 6.6 0.5 4.6 87 0.9 W 26 37 14 20 1010.6 1010.6 6.8
24/05:54am 6.6 0.1 4.6 87 0.9 W 28 43 15 23 1010.5 1010.5 6.6
24/05:30am 6.4 1.3 4.1 85 1.0 WSW 20 28 11 15 1009.6 1009.6 6.2
24/05:00am 6.6 0.7 3.9 83 1.2 WSW 24 52 13 28 1009.7 1009.7 6.2
24/04:30am 6.9 1.6 3.0 76 1.6 WSW 20 28 11 15 1008.7 1008.7 6.0
24/04:00am 7.8 1.1 3.5 74 1.8 WSW 28 41 15 22 1008.2 1008.2 6.0
24/03:52am 8.0 1.3 3.7 74 1.8 WSW 28 41 15 22 1008.0 1008.0 6.0
24/03:30am 6.0 2.1 3.2 82 1.2 WNW 13 19 7 10 1007.9 1007.9 6.0
24/03:00am 7.1 1.5 3.5 78 1.5 SW 22 33 12 18 1007.3 1007.3 6.0
24/02:36am 7.8 0.7 3.7 75 1.8 WSW 30 57 16 31 1007.1 1007.1 5.8
24/02:30am 7.4 0.6 3.1 74 1.8 WSW 28 37 15 20 1006.8 1006.8 5.8
24/02:00am 6.8 -0.7 4.3 84 1.1 SW 33 57 18 31 1006.7 1006.7 5.8
24/01:55am 7.2 0.2 4.2 81 1.3 SW 30 57 16 31 1006.6 1006.6 5.8
24/01:30am 7.3 1.3 5.1 86 1.0 WSW 26 35 14 19 1005.9 1005.9 5.8
24/01:06am 7.3 0.9 5.1 86 1.0 WSW 28 50 15 27 1006.1 1006.1 5.6
24/01:00am 7.1 1.5 5.4 89 0.8 WSW 24 32 13 17 1005.8 1005.8 5.6
24/12:30am 7.2 -0.5 5.2 87 0.9 W 35 54 19 29 1005.8 1005.8 5.2
24/12:16am 7.8 1.3 4.9 82 1.3 W 28 63 15 34 1006.1 1006.1 4.8
24/12:00am 7.6 2.1 3.8 77 1.6 W 22 30 12 16 1005.0 1005.0 4.6
 
Date/Time
CST
Temp
°C
App
Temp
°C
Dew
Point
°C
Rel
Hum
%
Delta-T
°C
Wind Press
QNH
hPa
Press
MSL
hPa
Rain since
9am
mm
Dir  Spd
km/h
Gust
km/h
Spd
kts
Gust
kts
23/11:39pm 8.5 1.8 3.8 72 2.0 WNW 28 46 15 25 1004.8 1004.8 4.6
23/11:30pm 8.4 2.9 4.0 74 1.9 W 22 30 12 16 1005.1 1005.1 4.6
23/11:03pm 8.2 1.7 4.8 79 1.5 W 28 46 15 25 1005.4 1005.4 4.6
23/11:00pm 8.2 2.5 4.8 79 1.5 W 24 41 13 22 1005.5 1005.5 4.6
23/10:30pm 7.8 2.8 4.4 79 1.5 W 20 26 11 14 1004.6 1004.6 4.6
23/10:00pm 7.0 3.1 5.3 89 0.8 WNW 15 17 8 9 1004.7 1004.7 4.6
23/09:30pm 6.3 2.7 4.8 90 0.7 WNW 13 15 7 8 1004.6 1004.6 4.6
23/09:00pm 6.2 2.9 4.8 91 0.6 W 11 13 6 7 1004.5 1004.5 4.6
23/08:30pm 6.4 2.7 4.7 89 0.7 WNW 13 15 7 8 1004.1 1004.1 4.6
23/08:00pm 7.1 2.3 4.9 86 1.0 W 19 28 10 15 1003.9 1003.9 4.6
23/07:30pm 7.6 2.1 5.7 88 0.9 SW 24 35 13 19 1004.1 1004.1 4.4
23/07:25pm 7.6 1.3 5.7 88 0.9 WSW 28 39 15 21 1004.0 1004.0 4.4
23/07:00pm 6.1 3.2 4.4 89 0.7 WNW 9 15 5 8 1003.2 1003.2 4.4
23/06:30pm 7.0 3.1 5.2 88 0.8 WNW 15 20 8 11 1002.9 1002.9 4.4
23/06:03pm 8.9 2.4 4.9 76 1.8 W 28 50 15 27 1003.5 1003.5 4.0
23/06:00pm 9.0 3.7 5.0 76 1.8 W 22 43 12 23 1003.3 1003.3 4.0
23/05:30pm 9.2 5.9 6.6 84 1.2 WNW 13 15 7 8 1002.4 1002.4 4.0
23/05:00pm 9.0 5.7 6.6 85 1.1 NW 13 17 7 9 1001.9 1001.9 4.0
23/04:30pm 9.1 7.1 6.9 86 1.0 WNW 7 9 4 5 1001.8 1001.8 4.0
23/04:00pm 9.5 6.3 6.8 83 1.3 W 13 17 7 9 1001.7 1001.7 4.0
23/03:30pm 9.7 4.1 7.3 85 1.1 W 26 46 14 25 1001.6 1001.6 4.0
23/03:00pm 11.6 8.3 8.1 79 1.7 W 15 20 8 11 1001.0 1001.0 3.4
23/02:30pm 11.6 7.9 8.1 79 1.7 W 17 26 9 14 1001.0 1001.0 3.4
23/02:00pm 11.6 8.2 9.0 84 1.3 WSW 17 24 9 13 1000.8 1000.8 3.4
23/01:30pm 11.1 7.0 8.5 84 1.3 W 20 28 11 15 1001.2 1001.2 3.4
23/01:00pm 11.5 8.5 9.1 85 1.2 W 15 20 8 11 1000.8 1000.8 3.4
23/12:30pm 10.3 6.1 8.2 87 1.0 W 20 30 11 16 1001.7 1001.7 3.4
23/12:00pm 10.4 5.5 8.3 87 1.0 W 24 37 13 20 1002.0 1002.0 3.2
23/11:30am 11.3 8.5 10.0 92 0.7 W 15 20 8 11 1002.2 1002.2 2.8
23/11:00am 11.3 9.3 10.2 93 0.6 WNW 11 13 6 7 1002.0 1002.0 2.8
23/10:30am 10.9 8.9 10.0 94 0.5 W 11 15 6 8 1002.4 1002.4 2.8
23/10:00am 10.7 7.8 9.8 94 0.5 W 15 20 8 11 1002.3 1002.3 2.4
23/09:52am 10.7 7.8 9.8 94 0.5 W 15 20 8 11 1002.4 1002.4 2.2
23/09:30am 10.6 8.0 9.5 93 0.6 WNW 13 19 7 10 1002.1 1002.1 2.0
23/09:03am 10.9 4.0 9.0 88 0.9 WSW 35 57 19 31 1001.5 1001.5 0.4
23/09:00am 11.1 3.9 9.0 87 1.0 WSW 37 57 20 31 1001.4 1001.4 19.0
23/08:57am 11.3 2.9 9.0 86 1.1 W 43 69 23 37 1001.4 1001.4 18.6
23/08:51am 12.2 3.2 10.4 89 0.9 WNW 48 69 26 37 1001.2 1001.2 18.4
23/08:32am 13.1 5.4 11.5 90 0.8 NW 43 67 23 36 999.9 999.9 16.4
23/08:30am 13.1 5.3 11.3 89 1.0 NW 43 67 23 36 999.9 999.9 16.4
23/08:06am 13.2 6.6 11.3 88 1.0 NNW 37 56 20 30 999.9 999.9 15.6
23/08:00am 13.3 7.0 11.0 86 1.2 NNW 35 50 19 27 1000.0 1000.0 15.6
23/07:33am 13.1 7.0 10.6 85 1.3 NW 33 52 18 28 1000.2 1000.2 15.4
23/07:30am 13.2 6.8 10.7 85 1.3 NW 35 48 19 26 1000.3 1000.3 15.4
23/07:07am 13.5 7.8 11.0 85 1.3 NNW 32 50 17 27 1000.6 1000.6 15.4
23/07:00am 13.5 8.1 11.0 85 1.3 NNW 30 44 16 24 1000.6 1000.6 15.4
23/06:30am 12.9 7.9 10.8 87 1.1 NW 28 50 15 27 1000.9 1000.9 15.4
23/06:24am 13.3 7.9 11.0 86 1.2 NNW 30 50 16 27 1000.7 1000.7 15.4
23/06:00am 13.3 7.6 11.2 87 1.1 NNW 32 44 17 24 1001.0 1001.0 15.2
23/05:30am 13.0 8.9 11.4 90 0.9 NW 24 35 13 19 1001.5 1001.5 15.2
23/05:00am 13.0 7.7 11.1 88 1.0 NW 30 39 16 21 1001.7 1001.7 14.8
23/04:41am 13.0 8.0 11.1 88 1.0 NW 28 48 15 26 1002.1 1002.1 14.8
23/04:30am 12.8 8.3 11.4 91 0.7 NW 26 41 14 22 1002.1 1002.1 14.8
23/04:19am 12.9 7.3 11.5 91 0.7 NW 32 46 17 25 1002.3 1002.3 14.8
23/04:02am 13.0 7.8 11.7 92 0.7 NW 30 41 16 22 1002.6 1002.6 14.4
23/04:00am 13.1 7.9 11.7 91 0.7 NW 30 41 16 22 1002.6 1002.6 14.4
23/03:30am 13.1 7.5 11.5 90 0.9 NW 32 43 17 23 1002.9 1002.9 14.2
23/03:00am 13.4 8.1 11.3 87 1.1 NW 30 43 16 23 1003.3 1003.3 13.6
23/02:30am 13.3 7.7 11.4 88 1.0 NW 32 43 17 23 1003.5 1003.5 13.6
23/02:13am 13.1 7.8 11.3 89 1.0 NW 30 48 16 26 1003.7 1003.7 13.6
23/02:00am 13.1 6.5 11.3 89 1.0 NW 37 50 20 27 1003.9 1003.9 13.6
23/01:54am 13.0 6.8 11.4 90 0.8 NW 35 50 19 27 1004.0 1004.0 13.6
23/01:30am 12.9 7.1 11.6 92 0.7 NW 33 54 18 29 1004.4 1004.4 12.6
23/01:27am 12.9 7.3 11.5 91 0.7 NW 32 54 17 29 1004.5 1004.5 12.4
23/01:26am 13.0 7.4 11.6 91 0.7 NW 32 54 17 29 1004.5 1004.5 12.2
23/01:00am 12.8 7.1 11.0 89 0.9 NW 32 48 17 26 1004.7 1004.7 12.0
23/12:43am 13.0 6.9 11.6 91 0.7 NW 35 54 19 29 1005.1 1005.1 11.8
23/12:41am 13.1 7.3 11.5 90 0.8 NW 33 54 18 29 1005.0 1005.0 11.4
23/12:30am 13.2 8.4 11.6 90 0.9 NW 28 41 15 22 1005.1 1005.1 11.4
23/12:29am 13.1 8.7 11.7 91 0.7 NW 26 41 14 22 1005.1 1005.1 11.4
23/12:10am 13.1 8.3 11.8 92 0.7 NW 28 41 15 22 1005.5 1005.5 11.0
23/12:04am 13.0 9.0 11.7 92 0.7 NW 24 37 13 20 1005.6 1005.6 10.4
23/12:00am 12.9 8.9 11.8 93 0.6 NW 24 39 13 21 1005.7 1005.7 10.2
 
Date/Time
CST
Temp
°C
App
Temp
°C
Dew
Point
°C
Rel
Hum
%
Delta-T
°C
Wind Press
QNH
hPa
Press
MSL
hPa
Rain since
9am
mm
Dir  Spd
km/h
Gust
km/h
Spd
kts
Gust
kts
22/11:47pm 12.9 8.1 11.8 93 0.6 NW 28 43 15 23 1005.9 1005.9 9.8
22/11:39pm 12.6 8.1 11.5 93 0.6 NW 26 33 14 18 1006.1 1006.1 9.0
22/11:32pm 12.4 7.8 11.1 92 0.7 NW 26 39 14 21 1006.1 1006.1 8.6
22/11:30pm 12.4 7.8 11.1 92 0.7 NW 26 39 14 21 1006.1 1006.1 8.6
22/11:25pm 12.5 7.9 11.2 92 0.7 NW 26 39 14 21 1006.2 1006.2 8.6
22/11:01pm 12.9 8.0 11.3 90 0.8 NW 28 39 15 21 1006.6 1006.6 3.4
22/11:00pm 13.0 8.1 11.2 89 0.9 NW 28 43 15 23 1006.6 1006.6 3.2
22/10:30pm 13.1 8.2 11.3 89 1.0 NW 28 43 15 23 1006.6 1006.6 2.2
22/10:00pm 13.2 8.5 10.7 85 1.3 NW 26 39 14 21 1006.7 1006.7 1.8

Other Formats:

Comma delimited format used in spreadsheet applications
http://www.bom.gov.au/fwo/IDS60801/IDS60801.95807.axf

JavaScript Object Notation format (JSON) in row-major order
http://www.bom.gov.au/fwo/IDS60801/IDS60801.95807.json